Time;durP1;ratioP1;P1;durP2;ratioP2;P2;SDS_P1;SDS_P2;PMS_P1;PMS_P2;Temp;Humidity;BMP_temperature;BMP_pressure;BME280_temperature;BME280_humidity;BME280_pressure;Samples;Min_cycle;Max_cycle;Signal;HPM_P1;HPM_P2
2024/01/12 00:00:20;;;;;;;9.90;7.00;;;7.80;80.00;;;;;;5075870;28;20017;-78
2024/01/12 00:02:46;;;;;;;11.52;6.63;;;7.80;80.00;;;;;;5076190;28;20044;-78
2024/01/12 00:05:12;;;;;;;9.98;6.75;;;7.70;80.00;;;;;;5076584;28;20029;-75
2024/01/12 00:07:38;;;;;;;9.80;6.53;;;7.70;80.10;;;;;;5057531;28;20055;-77
2024/01/12 00:10:04;;;;;;;12.40;7.43;;;7.70;80.10;;;;;;5076319;28;20143;-77
2024/01/12 00:12:30;;;;;;;9.35;6.57;;;7.70;80.50;;;;;;5076359;28;20032;-76
2024/01/12 00:14:56;;;;;;;8.93;6.45;;;7.70;80.30;;;;;;5076836;28;20059;-77
2024/01/12 00:17:22;;;;;;;10.50;6.75;;;7.70;80.40;;;;;;5075357;28;20032;-76
2024/01/12 00:19:47;;;;;;;10.20;6.45;;;7.70;79.70;;;;;;5075571;28;20029;-78
2024/01/12 00:22:13;;;;;;;9.88;6.53;;;7.60;79.70;;;;;;5075535;28;20028;-75
2024/01/12 00:24:39;;;;;;;9.30;6.43;;;7.60;79.80;;;;;;5075222;28;20029;-76
2024/01/12 00:27:05;;;;;;;10.38;6.55;;;7.60;79.50;;;;;;5074695;28;20033;-78
2024/01/12 00:29:31;;;;;;;10.15;6.63;;;7.60;79.70;;;;;;5075070;28;20068;-74
2024/01/12 00:31:56;;;;;;;10.52;6.32;;;7.60;79.70;;;;;;5075328;28;20055;-76
2024/01/12 00:34:23;;;;;;;10.75;6.95;;;7.60;79.50;;;;;;5075000;28;20045;-77
2024/01/12 00:36:49;;;;;;;10.20;6.90;;;7.50;79.50;;;;;;5074619;28;20037;-77
2024/01/12 00:39:18;;;;;;;12.55;6.88;;;7.60;79.90;;;;;;5075057;28;20051;-77
2024/01/12 00:41:43;;;;;;;8.90;6.50;;;7.50;80.50;;;;;;5074784;28;20418;-76
2024/01/12 00:44:09;;;;;;;10.95;7.00;;;7.40;79.70;;;;;;5074477;28;20040;-76
2024/01/12 00:46:36;;;;;;;11.85;7.03;;;7.40;80.40;;;;;;5074508;28;20100;-77
2024/01/12 00:49:01;;;;;;;10.45;6.82;;;7.40;80.70;;;;;;5074035;28;20053;-77
2024/01/12 00:51:27;;;;;;;11.23;7.15;;;7.40;80.60;;;;;;5073994;28;20025;-77
2024/01/12 00:53:53;;;;;;;10.63;7.00;;;7.40;80.20;;;;;;5073609;28;20040;-76
2024/01/12 00:56:18;;;;;;;10.98;7.10;;;7.40;80.20;;;;;;5074079;28;20498;-75
2024/01/12 00:58:44;;;;;;;10.63;7.05;;;7.40;80.20;;;;;;5074496;28;20399;-76
2024/01/12 01:01:10;;;;;;;12.43;6.88;;;7.40;80.40;;;;;;5075161;28;20387;-77
2024/01/12 01:03:37;;;;;;;10.38;6.60;;;7.40;80.60;;;;;;5074830;28;20621;-76
2024/01/12 01:06:04;;;;;;;10.18;6.75;;;7.40;80.20;;;;;;5074907;28;20074;-77
2024/01/12 01:08:29;;;;;;;9.45;6.45;;;7.40;80.10;;;;;;5076086;28;20094;-76
2024/01/12 01:10:55;;;;;;;11.50;7.20;;;7.40;80.40;;;;;;5075761;28;20032;-76
2024/01/12 01:13:21;;;;;;;10.50;6.72;;;7.30;80.20;;;;;;5073774;28;20094;-75
2024/01/12 01:15:47;;;;;;;9.38;6.53;;;7.30;80.30;;;;;;5073692;28;20064;-76
2024/01/12 01:18:13;;;;;;;10.77;6.85;;;7.30;80.30;;;;;;5073788;28;20033;-76
2024/01/12 01:20:39;;;;;;;11.18;7.82;;;7.20;80.30;;;;;;5073502;28;20041;-76
2024/01/12 01:23:05;;;;;;;11.48;7.32;;;7.10;80.30;;;;;;5073495;28;20048;-76
2024/01/12 01:25:31;;;;;;;10.52;7.07;;;7.10;80.40;;;;;;5073227;28;20108;-76
2024/01/12 01:27:57;;;;;;;10.90;7.60;;;7.00;80.70;;;;;;5072913;28;20055;-77
2024/01/12 01:30:22;;;;;;;11.02;7.60;;;7.00;81.20;;;;;;5073170;28;20033;-75
2024/01/12 01:32:48;;;;;;;11.48;7.40;;;7.00;80.80;;;;;;5073579;28;20041;-74
2024/01/12 01:35:16;;;;;;;11.75;7.53;;;7.00;80.60;;;;;;5073410;28;20029;-76
2024/01/12 01:37:42;;;;;;;12.00;7.53;;;7.00;80.70;;;;;;5073068;28;20075;-74
2024/01/12 01:40:08;;;;;;;11.68;7.30;;;6.90;80.70;;;;;;5055019;28;20483;-75
2024/01/12 01:42:34;;;;;;;13.25;7.88;;;6.90;80.70;;;;;;5073100;28;20036;-77
2024/01/12 01:45:01;;;;;;;11.50;7.90;;;6.90;81.10;;;;;;5072860;28;20055;-74
2024/01/12 01:47:27;;;;;;;10.82;7.22;;;6.90;81.40;;;;;;5073162;28;20036;-75
2024/01/12 01:49:54;;;;;;;11.75;7.90;;;7.00;81.60;;;;;;5054838;28;20410;-75
2024/01/12 01:52:23;;;;;;;11.48;7.32;;;7.00;81.60;;;;;;5073113;28;20060;-75
2024/01/12 01:54:48;;;;;;;11.30;7.47;;;7.00;81.40;;;;;;5064530;28;20351;-75
2024/01/12 01:57:15;;;;;;;12.10;8.15;;;7.00;81.30;;;;;;5054083;28;20040;-75
2024/01/12 01:59:41;;;;;;;11.93;8.43;;;7.00;81.60;;;;;;5034771;28;20032;-77
2024/01/12 02:02:08;;;;;;;12.45;8.20;;;6.90;81.60;;;;;;5052498;28;20033;-76
2024/01/12 02:04:34;;;;;;;11.13;8.20;;;6.90;81.60;;;;;;5052829;28;20108;-76
2024/01/12 02:07:01;;;;;;;10.77;8.23;;;6.90;81.80;;;;;;5071340;28;20028;-75
2024/01/12 02:09:28;;;;;;;12.73;8.32;;;6.80;81.90;;;;;;5073007;28;20068;-76
2024/01/12 02:11:54;;;;;;;12.93;8.82;;;6.80;81.80;;;;;;5072709;28;20432;-75
2024/01/12 02:14:20;;;;;;;12.40;8.02;;;6.70;81.90;;;;;;5072486;28;20048;-74
2024/01/12 02:16:46;;;;;;;12.15;8.25;;;6.70;81.90;;;;;;5054397;28;20041;-77
2024/01/12 02:19:12;;;;;;;11.60;8.27;;;6.80;81.70;;;;;;5072528;28;20036;-77
2024/01/12 02:21:38;;;;;;;12.88;9.13;;;6.80;81.80;;;;;;5072235;28;20024;-76
2024/01/12 02:24:04;;;;;;;12.52;9.38;;;6.80;81.50;;;;;;5053346;28;20041;-76
2024/01/12 02:26:30;;;;;;;13.15;9.40;;;6.70;81.80;;;;;;5052211;28;20036;-75
2024/01/12 02:28:57;;;;;;;13.82;9.85;;;6.60;81.70;;;;;;5052138;28;20033;-77
2024/01/12 02:31:24;;;;;;;13.88;9.88;;;6.60;81.70;;;;;;5052398;28;20031;-76
2024/01/12 02:33:50;;;;;;;12.38;9.10;;;6.60;81.60;;;;;;5052369;28;20029;-75
2024/01/12 02:36:16;;;;;;;13.38;8.77;;;6.60;81.70;;;;;;5052267;28;20061;-76
2024/01/12 02:38:43;;;;;;;13.25;9.57;;;6.50;81.80;;;;;;5052150;28;20471;-76
2024/01/12 02:41:09;;;;;;;13.93;9.30;;;6.40;81.70;;;;;;5052031;28;20037;-76
2024/01/12 02:43:35;;;;;;;13.13;9.20;;;6.40;82.20;;;;;;5034099;28;20561;-76
2024/01/12 02:46:01;;;;;;;15.18;9.05;;;6.40;81.90;;;;;;5052704;28;20056;-75
2024/01/12 02:48:26;;;;;;;11.73;8.77;;;6.40;82.20;;;;;;5052149;28;20455;-75
2024/01/12 02:50:52;;;;;;;11.15;8.48;;;6.30;82.20;;;;;;5052281;28;20037;-75
2024/01/12 02:53:18;;;;;;;12.82;8.95;;;6.30;82.40;;;;;;5052455;28;20037;-76
2024/01/12 02:55:44;;;;;;;12.07;8.82;;;6.30;82.40;;;;;;5052427;28;20088;-76
2024/01/12 02:58:09;;;;;;;12.88;9.48;;;6.30;82.60;;;;;;5052121;28;20112;-74
2024/01/12 03:00:35;;;;;;;12.77;8.95;;;6.20;82.40;;;;;;5052154;28;20068;-75
2024/01/12 03:03:01;;;;;;;12.73;8.85;;;6.30;82.50;;;;;;5052290;28;20558;-75
2024/01/12 03:05:26;;;;;;;12.70;8.65;;;6.40;82.40;;;;;;5052176;28;20033;-75
2024/01/12 03:07:52;;;;;;;14.00;8.63;;;6.40;82.50;;;;;;5052045;28;20037;-74
2024/01/12 03:10:17;;;;;;;11.95;8.70;;;6.40;82.30;;;;;;5052260;28;20120;-76
2024/01/12 03:12:43;;;;;;;12.30;7.75;;;6.40;82.40;;;;;;5034053;28;20045;-75
2024/01/12 03:15:09;;;;;;;11.52;8.43;;;6.50;82.60;;;;;;5051965;28;20117;-74
2024/01/12 03:17:35;;;;;;;12.63;8.52;;;6.40;82.30;;;;;;5055156;28;20041;-74
2024/01/12 03:20:00;;;;;;;11.85;8.55;;;6.50;82.40;;;;;;5055642;28;20033;-76
2024/01/12 03:22:26;;;;;;;11.57;8.10;;;6.40;82.40;;;;;;5055524;28;20191;-75
2024/01/12 03:24:52;;;;;;;12.82;8.98;;;6.30;83.00;;;;;;5055455;28;20037;-76
2024/01/12 03:27:17;;;;;;;11.48;8.30;;;6.30;82.10;;;;;;5055470;28;20396;-75
2024/01/12 03:29:43;;;;;;;14.35;8.57;;;6.30;82.40;;;;;;5055698;28;20037;-75
2024/01/12 03:32:09;;;;;;;12.23;8.75;;;6.30;82.50;;;;;;5055327;28;20100;-75
2024/01/12 03:34:34;;;;;;;13.75;8.65;;;6.20;82.50;;;;;;5055295;28;20492;-76
2024/01/12 03:37:00;;;;;;;12.20;7.70;;;6.20;82.50;;;;;;5037743;28;20033;-77
2024/01/12 03:39:26;;;;;;;13.68;8.75;;;6.20;82.30;;;;;;5055372;28;20093;-75
2024/01/12 03:41:51;;;;;;;11.63;8.15;;;6.30;82.50;;;;;;5037431;28;20033;-77
2024/01/12 03:44:17;;;;;;;13.50;8.68;;;6.30;82.60;;;;;;5055386;28;20110;-74
2024/01/12 03:46:43;;;;;;;12.00;8.35;;;6.30;82.60;;;;;;5054932;28;20039;-76
2024/01/12 03:49:08;;;;;;;12.63;8.98;;;6.20;82.20;;;;;;5054972;28;20404;-75
2024/01/12 03:51:34;;;;;;;12.77;8.77;;;6.20;82.60;;;;;;5055451;28;20075;-77
2024/01/12 03:53:59;;;;;;;12.60;8.90;;;6.20;82.70;;;;;;5055489;28;20111;-75
2024/01/12 03:56:25;;;;;;;13.27;8.68;;;6.20;82.60;;;;;;5037152;28;20040;-74
2024/01/12 03:58:51;;;;;;;12.13;8.27;;;6.10;82.50;;;;;;5054681;28;20037;-75
2024/01/12 04:01:17;;;;;;;13.02;8.95;;;6.10;82.50;;;;;;5055049;28;20397;-75
2024/01/12 04:03:43;;;;;;;12.52;8.57;;;6.10;82.70;;;;;;5054678;28;20496;-74
2024/01/12 04:06:09;;;;;;;13.60;9.15;;;6.10;82.70;;;;;;5054545;28;20036;-74
2024/01/12 04:08:35;;;;;;;13.63;9.30;;;6.10;82.80;;;;;;5055042;28;20040;-76
2024/01/12 04:11:01;;;;;;;13.75;9.30;;;6.00;82.80;;;;;;5055725;28;20032;-75
2024/01/12 04:13:26;;;;;;;11.40;8.18;;;6.00;82.90;;;;;;5054997;28;20507;-74
2024/01/12 04:15:53;;;;;;;13.00;9.10;;;6.00;82.80;;;;;;5054789;28;20075;-78
2024/01/12 04:18:18;;;;;;;12.30;8.13;;;6.00;82.80;;;;;;5054521;28;20025;-74
2024/01/12 04:20:44;;;;;;;15.25;8.23;;;6.00;82.70;;;;;;5054458;28;20047;-76
2024/01/12 04:23:10;;;;;;;13.38;8.68;;;6.00;82.90;;;;;;5054445;28;20045;-76
2024/01/12 04:25:36;;;;;;;13.38;8.98;;;5.90;82.70;;;;;;5054630;28;20036;-76
2024/01/12 04:28:01;;;;;;;15.23;9.07;;;5.90;83.10;;;;;;5053037;28;20086;-75
2024/01/12 04:30:27;;;;;;;12.90;8.85;;;5.80;82.70;;;;;;5054031;28;20112;-73
2024/01/12 04:32:53;;;;;;;14.35;9.27;;;5.80;83.00;;;;;;5054397;28;20117;-76
2024/01/12 04:35:19;;;;;;;14.95;8.75;;;5.80;82.90;;;;;;5055009;28;20036;-74
2024/01/12 04:37:44;;;;;;;12.05;8.38;;;5.80;83.00;;;;;;5054578;28;20029;-76
2024/01/12 04:40:11;;;;;;;14.57;10.07;;;5.80;83.10;;;;;;5054149;28;20065;-75
2024/01/12 04:42:36;;;;;;;16.00;9.18;;;5.90;83.20;;;;;;5036113;28;20407;-77
2024/01/12 04:45:03;;;;;;;15.15;8.90;;;5.90;83.20;;;;;;5054227;28;20029;-75
2024/01/12 04:47:28;;;;;;;13.48;8.63;;;5.90;83.20;;;;;;5054389;28;20083;-76
2024/01/12 04:49:54;;;;;;;13.15;8.68;;;5.90;83.10;;;;;;5054599;28;20081;-76
2024/01/12 04:52:20;;;;;;;14.10;8.90;;;5.80;82.80;;;;;;5054178;28;20132;-76
2024/01/12 04:54:45;;;;;;;14.32;8.60;;;5.80;83.10;;;;;;5053690;28;20029;-76
2024/01/12 04:57:11;;;;;;;12.27;8.73;;;5.80;83.20;;;;;;5053839;28;20025;-76
2024/01/12 04:59:37;;;;;;;11.63;7.78;;;5.80;83.20;;;;;;5053812;28;20500;-76
2024/01/12 05:02:02;;;;;;;11.75;8.48;;;5.80;83.00;;;;;;5053646;28;20040;-75
2024/01/12 05:04:28;;;;;;;11.73;7.70;;;5.80;83.40;;;;;;5053215;28;20437;-75
2024/01/12 05:06:54;;;;;;;12.10;8.00;;;5.80;83.10;;;;;;5053501;28;20541;-75
2024/01/12 05:09:19;;;;;;;11.68;7.63;;;5.90;83.20;;;;;;5053439;28;20037;-74
2024/01/12 05:11:45;;;;;;;13.20;8.23;;;5.90;83.00;;;;;;5053951;28;20041;-75
2024/01/12 05:14:11;;;;;;;12.43;8.70;;;5.90;83.10;;;;;;5053572;28;20484;-77
2024/01/12 05:16:36;;;;;;;11.07;8.18;;;5.90;83.30;;;;;;5053360;28;20392;-76
2024/01/12 05:19:02;;;;;;;13.75;8.95;;;5.80;82.90;;;;;;5053202;28;20041;-76
2024/01/12 05:21:28;;;;;;;11.90;8.68;;;5.80;83.10;;;;;;5053112;28;20033;-77
2024/01/12 05:23:54;;;;;;;13.98;8.73;;;5.80;83.00;;;;;;5035180;28;20044;-77
2024/01/12 05:26:20;;;;;;;11.98;8.70;;;5.70;83.00;;;;;;5053055;28;20025;-76
2024/01/12 05:28:45;;;;;;;14.15;9.20;;;5.70;83.20;;;;;;5053353;28;20037;-77
2024/01/12 05:31:11;;;;;;;13.90;8.77;;;5.80;83.20;;;;;;5053363;28;20116;-77
2024/01/12 05:33:37;;;;;;;13.52;9.15;;;5.80;83.20;;;;;;5053474;28;20044;-75
2024/01/12 05:36:03;;;;;;;17.05;10.70;;;5.70;82.90;;;;;;5053228;28;20056;-76
2024/01/12 05:38:28;;;;;;;13.18;8.75;;;5.70;83.10;;;;;;5034727;28;20400;-77
2024/01/12 05:40:54;;;;;;;15.50;9.00;;;5.70;83.00;;;;;;5052912;28;20064;-77
2024/01/12 05:43:20;;;;;;;12.85;9.20;;;5.70;83.20;;;;;;5052838;28;20045;-77
2024/01/12 05:45:45;;;;;;;11.50;8.52;;;5.80;83.40;;;;;;5052827;28;20037;-76
2024/01/12 05:48:12;;;;;;;16.15;10.50;;;5.70;83.30;;;;;;5052827;28;20078;-75
2024/01/12 05:50:37;;;;;;;12.13;8.50;;;5.70;83.10;;;;;;5052768;28;20060;-75
2024/01/12 05:53:05;;;;;;;14.25;10.18;;;5.60;83.10;;;;;;5053525;28;20036;-78
2024/01/12 05:55:31;;;;;;;12.45;8.95;;;5.60;82.90;;;;;;5054702;28;20412;-76
2024/01/12 05:57:57;;;;;;;17.40;11.27;;;5.60;82.80;;;;;;5053198;28;20029;-75
2024/01/12 06:00:22;;;;;;;12.20;8.45;;;5.60;82.80;;;;;;5052746;28;20029;-76
2024/01/12 06:02:48;;;;;;;12.20;9.02;;;5.60;82.80;;;;;;5052859;28;20048;-78
2024/01/12 06:05:14;;;;;;;12.45;8.50;;;5.60;82.90;;;;;;5052648;28;20032;-75
2024/01/12 06:07:39;;;;;;;12.50;8.75;;;5.60;82.90;;;;;;5052590;28;20400;-75
2024/01/12 06:10:08;;;;;;;16.85;11.07;;;5.60;83.40;;;;;;5034476;28;20041;-76
2024/01/12 06:12:34;;;;;;;13.05;8.95;;;5.60;83.30;;;;;;5052108;28;20071;-76
2024/01/12 06:15:00;;;;;;;12.15;8.90;;;5.60;83.30;;;;;;5052672;28;20480;-76
2024/01/12 06:17:26;;;;;;;13.75;8.05;;;5.60;83.10;;;;;;5052423;28;20059;-76
2024/01/12 06:19:52;;;;;;;13.05;8.65;;;5.60;82.80;;;;;;5052356;28;20143;-76
2024/01/12 06:22:18;;;;;;;14.07;9.73;;;5.60;83.10;;;;;;5052547;28;20037;-75
2024/01/12 06:24:44;;;;;;;12.45;8.30;;;5.50;83.00;;;;;;5052482;28;20094;-76
2024/01/12 06:27:10;;;;;;;13.18;8.70;;;5.50;82.90;;;;;;5052834;28;20029;-77
2024/01/12 06:29:36;;;;;;;16.60;10.55;;;5.50;83.10;;;;;;5052548;28;20389;-76
2024/01/12 06:32:03;;;;;;;13.93;7.55;;;5.40;83.10;;;;;;5052717;28;20033;-76
2024/01/12 06:34:29;;;;;;;12.10;8.07;;;5.50;83.10;;;;;;5052289;28;20364;-76
2024/01/12 06:36:56;;;;;;;13.32;8.55;;;5.40;83.00;;;;;;5052420;28;20032;-76
2024/01/12 06:39:22;;;;;;;14.77;8.45;;;5.50;83.20;;;;;;5052284;28;20041;-75
2024/01/12 06:41:48;;;;;;;13.13;8.90;;;5.50;83.20;;;;;;5052256;28;20033;-74
2024/01/12 06:44:14;;;;;;;12.73;8.52;;;5.50;83.10;;;;;;5053986;28;20110;-75
2024/01/12 06:46:43;;;;;;;14.38;9.73;;;5.50;82.80;;;;;;5052705;28;20491;-78
2024/01/12 06:49:09;;;;;;;13.27;8.23;;;5.60;83.40;;;;;;5052519;28;20055;-76
2024/01/12 06:51:35;;;;;;;17.35;9.32;;;5.50;82.80;;;;;;5054316;28;20507;-77
2024/01/12 06:54:01;;;;;;;15.50;8.98;;;5.50;82.70;;;;;;5038296;28;20033;-76
2024/01/12 06:56:27;;;;;;;13.85;9.73;;;5.50;82.70;;;;;;5055999;28;20464;-77
2024/01/12 06:58:52;;;;;;;13.05;8.38;;;5.50;82.70;;;;;;5055924;28;20041;-75
2024/01/12 07:01:18;;;;;;;15.20;10.00;;;5.50;82.60;;;;;;5055834;28;20406;-77
2024/01/12 07:03:45;;;;;;;11.48;8.10;;;5.70;82.90;;;;;;5055664;28;20044;-77
2024/01/12 07:06:11;;;;;;;11.02;7.80;;;6.10;82.90;;;;;;5056147;28;20132;-77
2024/01/12 07:08:36;;;;;;;14.88;8.25;;;6.80;82.20;;;;;;5058075;28;20111;-75
2024/01/12 07:11:03;;;;;;;11.82;8.05;;;7.30;80.50;;;;;;5090402;28;20032;-77
2024/01/12 07:13:29;;;;;;;15.35;8.60;;;7.80;80.00;;;;;;5096073;28;20394;-77
2024/01/12 07:15:55;;;;;;;16.05;9.10;;;8.20;78.40;;;;;;5096946;28;20036;-79
2024/01/12 07:18:20;;;;;;;12.18;7.85;;;8.60;77.90;;;;;;5093178;28;20043;-79
2024/01/12 07:20:46;;;;;;;16.52;8.82;;;8.90;76.30;;;;;;5083045;28;20032;-81
2024/01/12 07:23:12;;;;;;;14.75;8.27;;;9.30;76.10;;;;;;5095708;28;20094;-77
2024/01/12 07:25:38;;;;;;;12.63;9.02;;;9.90;75.30;;;;;;5095840;28;20055;-78
2024/01/12 07:28:07;;;;;;;13.15;8.20;;;10.30;72.90;;;;;;5089190;28;20043;-80
2024/01/12 07:30:33;;;;;;;14.40;8.50;;;10.80;71.80;;;;;;5083306;28;20036;-79
2024/01/12 07:32:59;;;;;;;16.50;8.80;;;10.90;70.50;;;;;;5078840;28;20120;-82
2024/01/12 07:35:25;;;;;;;15.15;8.52;;;11.30;70.00;;;;;;5075391;28;20060;-80
2024/01/12 07:37:51;;;;;;;13.43;7.95;;;11.50;68.90;;;;;;5075520;28;20032;-79
2024/01/12 07:40:17;;;;;;;12.15;7.72;;;11.60;69.20;;;;;;5075794;28;20094;-80
2024/01/12 07:42:43;;;;;;;11.38;7.70;;;11.70;68.30;;;;;;5075390;28;20036;-80
2024/01/12 07:45:11;;;;;;;12.25;7.97;;;11.30;67.80;;;;;;5075533;28;20037;-78
2024/01/12 07:47:36;;;;;;;13.75;8.82;;;10.20;68.80;;;;;;5079944;28;20108;-80
2024/01/12 07:50:03;;;;;;;12.35;8.40;;;9.30;71.40;;;;;;5077850;28;20422;-78
2024/01/12 07:52:28;;;;;;;12.98;8.57;;;8.60;74.60;;;;;;5088003;28;20035;-80
2024/01/12 07:54:54;;;;;;;14.63;8.40;;;8.20;75.10;;;;;;5067041;28;20040;-80
2024/01/12 07:57:20;;;;;;;12.10;8.27;;;7.80;75.90;;;;;;5080392;28;20051;-80
2024/01/12 07:59:45;;;;;;;13.43;8.48;;;7.50;76.90;;;;;;5070020;28;20391;-80
2024/01/12 08:02:11;;;;;;;12.88;8.98;;;7.40;77.80;;;;;;5059743;28;20507;-80
2024/01/12 08:04:39;;;;;;;11.95;8.43;;;7.30;78.10;;;;;;5054780;28;20111;-81
2024/01/12 08:07:06;;;;;;;13.35;8.93;;;7.20;77.90;;;;;;5037017;28;20032;-81
2024/01/12 08:09:32;;;;;;;13.10;8.68;;;7.10;78.20;;;;;;5055009;28;20041;-80
2024/01/12 08:11:58;;;;;;;12.98;8.07;;;7.10;77.90;;;;;;5045395;28;20028;-80
2024/01/12 08:14:23;;;;;;;15.90;8.85;;;7.10;78.00;;;;;;5074980;28;20091;-81
2024/01/12 08:16:49;;;;;;;12.10;7.78;;;7.10;77.60;;;;;;5074732;28;20113;-80
2024/01/12 08:19:15;;;;;;;11.80;7.65;;;7.10;77.80;;;;;;5075267;28;20039;-80
2024/01/12 08:21:41;;;;;;;15.55;8.45;;;7.10;77.50;;;;;;5076186;28;20029;-79
2024/01/12 08:24:07;;;;;;;12.05;7.97;;;7.10;78.00;;;;;;5075046;28;20040;-79
2024/01/12 08:26:33;;;;;;;12.85;8.38;;;7.10;78.10;;;;;;5074063;28;20064;-80
2024/01/12 08:29:01;;;;;;;12.80;8.32;;;7.10;78.20;;;;;;5074394;28;20028;-80
2024/01/12 08:31:28;;;;;;;11.82;8.18;;;7.10;78.10;;;;;;5074627;28;20059;-78
2024/01/12 08:33:54;;;;;;;12.07;8.43;;;7.10;77.80;;;;;;5075202;28;20044;-79
2024/01/12 08:36:20;;;;;;;14.30;7.93;;;7.10;78.30;;;;;;5058150;28;20033;-80
2024/01/12 08:38:45;;;;;;;12.60;7.75;;;7.10;77.80;;;;;;5075246;28;20029;-80
2024/01/12 08:41:11;;;;;;;15.32;8.30;;;7.20;77.80;;;;;;5074987;28;20028;-80
2024/01/12 08:43:37;;;;;;;13.73;8.57;;;7.20;77.80;;;;;;5075869;28;20044;-80
2024/01/12 08:46:03;;;;;;;14.93;8.05;;;7.20;77.70;;;;;;5075946;28;20028;-80
2024/01/12 08:48:29;;;;;;;12.95;8.00;;;7.30;77.50;;;;;;5075251;28;20040;-81
2024/01/12 08:50:55;;;;;;;11.60;7.78;;;7.30;77.40;;;;;;5077229;28;20466;-81
2024/01/12 08:53:20;;;;;;;14.63;8.50;;;7.40;77.40;;;;;;5094277;28;20119;-81
2024/01/12 08:55:46;;;;;;;10.80;7.88;;;7.40;77.10;;;;;;5077941;28;20029;-80
2024/01/12 08:58:12;;;;;;;12.07;7.55;;;7.50;77.10;;;;;;5106316;28;20036;-79
2024/01/12 09:00:38;;;;;;;13.85;7.95;;;7.50;77.20;;;;;;5097359;28;20043;-81
2024/01/12 09:03:04;;;;;;;11.15;7.47;;;7.50;77.10;;;;;;5076721;28;20395;-81
2024/01/12 09:05:31;;;;;;;11.20;7.28;;;7.60;77.10;;;;;;5076977;28;20387;-80
2024/01/12 09:07:56;;;;;;;14.55;6.78;;;7.70;76.30;;;;;;5096018;28;20044;-79
2024/01/12 09:10:22;;;;;;;12.45;7.47;;;7.70;76.00;;;;;;5095005;28;20058;-80
2024/01/12 09:12:48;;;;;;;11.32;7.13;;;7.70;76.10;;;;;;5096653;28;20089;-80
2024/01/12 09:15:14;;;;;;;12.95;6.97;;;7.80;75.90;;;;;;5093250;28;20058;-79
2024/01/12 09:17:40;;;;;;;11.60;7.28;;;7.90;75.60;;;;;;5093878;28;20106;-81
2024/01/12 09:20:07;;;;;;;10.23;7.13;;;8.00;75.40;;;;;;5093925;28;20529;-79
2024/01/12 09:22:33;;;;;;;10.93;7.60;;;8.10;75.80;;;;;;5093458;28;20036;-80
2024/01/12 09:24:59;;;;;;;11.70;6.65;;;8.10;74.90;;;;;;5093485;28;20399;-81
2024/01/12 09:27:24;;;;;;;11.48;7.28;;;8.20;75.00;;;;;;5093393;28;20364;-78
2024/01/12 09:29:50;;;;;;;13.05;6.88;;;8.30;75.20;;;;;;5093540;28;20149;-81
2024/01/12 09:32:16;;;;;;;13.50;7.10;;;8.40;74.90;;;;;;5074977;28;20123;-81
2024/01/12 09:34:42;;;;;;;11.05;6.60;;;8.50;74.20;;;;;;5093553;28;20074;-80
2024/01/12 09:37:07;;;;;;;12.70;7.00;;;8.60;74.10;;;;;;5093530;28;20044;-79
2024/01/12 09:39:33;;;;;;;13.82;6.78;;;8.60;73.20;;;;;;5093502;28;20094;-80
2024/01/12 09:42:04;;;;;;;11.13;6.93;;;8.70;73.70;;;;;;5093469;28;20040;-79
2024/01/12 09:44:36;;;;;;;11.57;6.40;;;8.80;74.60;;;;;;5093491;28;20040;-79
2024/01/12 09:47:02;;;;;;;13.45;6.80;;;8.90;73.70;;;;;;5093102;28;20086;-79
2024/01/12 09:49:30;;;;;;;12.85;6.88;;;9.00;73.50;;;;;;5093264;28;20052;-80
2024/01/12 09:52:01;;;;;;;10.80;6.63;;;9.10;73.00;;;;;;5093205;28;20024;-81
2024/01/12 09:54:27;;;;;;;11.32;6.28;;;9.20;72.50;;;;;;5092947;28;20039;-82
2024/01/12 09:56:55;;;;;;;10.63;6.10;;;9.20;72.00;;;;;;5092916;28;20051;-80
2024/01/12 09:59:22;;;;;;;9.82;6.07;;;9.30;72.00;;;;;;5092894;28;20058;-81
2024/01/12 10:01:49;;;;;;;10.98;6.38;;;9.50;71.60;;;;;;5092762;28;20025;-81
2024/01/12 10:04:15;;;;;;;10.02;5.80;;;9.50;71.40;;;;;;5092638;28;20040;-80
2024/01/12 10:06:40;;;;;;;10.38;6.15;;;9.60;71.10;;;;;;5092926;28;20036;-80
2024/01/12 10:09:07;;;;;;;9.07;5.80;;;9.60;71.10;;;;;;5093061;28;20063;-79
2024/01/12 10:11:33;;;;;;;11.63;6.55;;;9.70;71.40;;;;;;5092855;28;20433;-79
2024/01/12 10:14:02;;;;;;;10.23;6.38;;;9.80;71.30;;;;;;5093297;28;20036;-81
2024/01/12 10:16:29;;;;;;;12.38;6.45;;;9.90;72.20;;;;;;5093936;28;20410;-79
2024/01/12 10:19:05;;;;;;;8.25;5.65;;;10.00;70.30;;;;;;5093370;28;20047;-80
2024/01/12 10:21:39;;;;;;;10.43;5.97;;;10.10;70.00;;;;;;5093173;28;20526;-81
2024/01/12 10:24:06;;;;;;;9.02;6.00;;;10.20;69.70;;;;;;5092733;28;20032;-79
2024/01/12 10:26:32;;;;;;;11.60;5.95;;;10.20;70.00;;;;;;5093029;28;20085;-81
2024/01/12 10:29:01;;;;;;;10.43;5.93;;;10.30;69.40;;;;;;5093622;28;20044;-81
2024/01/12 10:31:28;;;;;;;13.02;7.20;;;10.30;69.30;;;;;;5093289;28;20036;-79
2024/01/12 10:33:59;;;;;;;10.98;6.45;;;10.40;69.50;;;;;;5094043;28;20036;-79
2024/01/12 10:36:28;;;;;;;12.77;6.03;;;10.50;70.00;;;;;;5092825;28;20032;-81
2024/01/12 10:38:56;;;;;;;13.52;7.05;;;10.60;69.30;;;;;;5092561;28;20098;-79
2024/01/12 10:41:24;;;;;;;10.07;6.65;;;10.70;69.00;;;;;;5094088;28;20032;-81
2024/01/12 10:43:54;;;;;;;13.27;6.93;;;10.80;68.80;;;;;;5093881;28;20051;-81
2024/01/12 10:46:31;;;;;;;12.20;6.38;;;10.90;69.00;;;;;;5093253;28;20032;-81
2024/01/12 10:49:14;;;;;;;11.65;6.82;;;11.00;69.30;;;;;;5098722;28;20441;-81
2024/01/12 10:51:58;;;;;;;8.98;6.13;;;11.00;68.80;;;;;;5097094;28;20032;-80
2024/01/12 10:54:33;;;;;;;11.52;6.75;;;11.10;68.30;;;;;;5095911;28;20032;-80
2024/01/12 10:57:00;;;;;;;10.88;6.05;;;11.10;68.60;;;;;;5094149;28;20028;-81
2024/01/12 10:59:28;;;;;;;11.35;6.10;;;11.20;67.70;;;;;;5093040;28;20032;-80
2024/01/12 11:01:54;;;;;;;9.50;5.75;;;11.30;67.70;;;;;;5093194;28;20027;-80
2024/01/12 11:04:21;;;;;;;9.90;6.03;;;11.30;66.90;;;;;;5092608;28;20146;-82
2024/01/12 11:06:51;;;;;;;9.48;6.00;;;11.30;66.80;;;;;;5092609;28;20112;-82
2024/01/12 11:09:18;;;;;;;14.35;7.10;;;11.30;66.40;;;;;;5092561;28;20033;-80
2024/01/12 11:12:06;;;;;;;10.85;6.07;;;11.40;66.60;;;;;;5074356;28;20147;-79
2024/01/12 11:14:32;;;;;;;12.15;5.85;;;11.50;66.30;;;;;;5073820;28;20054;-80
2024/01/12 11:16:58;;;;;;;10.30;6.75;;;11.60;66.00;;;;;;5075369;28;20036;-81
2024/01/12 11:19:25;;;;;;;9.77;5.45;;;11.70;66.20;;;;;;5092569;28;20036;-82
2024/01/12 11:22:11;;;;;;;10.95;5.95;;;11.80;66.10;;;;;;5073777;28;20377;-82
2024/01/12 11:24:43;;;;;;;9.13;5.30;;;11.90;66.10;;;;;;5091188;28;20040;-81
2024/01/12 11:27:14;;;;;;;9.05;4.93;;;12.00;65.80;;;;;;5092170;28;20499;-81
2024/01/12 11:29:43;;;;;;;9.05;5.20;;;12.10;65.50;;;;;;5074703;28;20028;-81
2024/01/12 11:32:15;;;;;;;11.95;5.80;;;12.20;65.30;;;;;;5092060;28;20039;-79
2024/01/12 11:34:40;;;;;;;11.50;6.13;;;12.30;65.40;;;;;;5092619;28;20039;-79
2024/01/12 11:37:10;;;;;;;11.68;5.70;;;12.40;65.20;;;;;;5093499;28;20036;-80
2024/01/12 11:39:40;;;;;;;9.70;5.43;;;12.40;64.40;;;;;;5096074;28;20117;-81
2024/01/12 11:42:06;;;;;;;9.82;5.43;;;12.50;64.40;;;;;;5095961;28;20035;-80
2024/01/12 11:44:36;;;;;;;12.45;5.22;;;12.60;64.80;;;;;;5078267;28;20043;-79
2024/01/12 11:47:07;;;;;;;8.13;5.45;;;12.60;63.70;;;;;;5096093;28;20039;-76
2024/01/12 11:49:34;;;;;;;7.63;5.20;;;12.70;63.00;;;;;;5096013;28;20088;-81
2024/01/12 11:52:04;;;;;;;9.18;4.82;;;12.80;63.10;;;;;;5096087;28;20032;-80
2024/01/12 11:54:30;;;;;;;9.25;5.38;;;12.80;63.30;;;;;;5095748;28;20024;-81
2024/01/12 11:56:56;;;;;;;7.90;5.00;;;12.90;63.00;;;;;;5095676;28;20032;-80
2024/01/12 11:59:22;;;;;;;7.93;5.25;;;13.00;62.00;;;;;;5095710;28;20035;-79
2024/01/12 12:01:48;;;;;;;11.85;5.10;;;13.00;61.30;;;;;;5095607;28;20040;-81
2024/01/12 12:04:19;;;;;;;8.48;5.20;;;13.00;61.70;;;;;;5095080;28;20044;-79
2024/01/12 12:06:48;;;;;;;12.65;5.43;;;13.10;61.90;;;;;;5095429;28;20043;-79
2024/01/12 12:09:14;;;;;;;10.00;5.10;;;13.20;61.00;;;;;;5095866;28;20535;-78
2024/01/12 12:11:40;;;;;;;8.15;5.32;;;13.20;60.90;;;;;;5100278;28;20072;-79
2024/01/12 12:14:05;;;;;;;8.73;5.45;;;13.30;60.00;;;;;;5095021;28;20044;-80
2024/01/12 12:16:32;;;;;;;10.85;5.80;;;13.30;59.90;;;;;;5095143;28;20048;-81
2024/01/12 12:18:58;;;;;;;10.88;6.65;;;13.40;59.70;;;;;;5096122;28;20032;-80
2024/01/12 12:21:24;;;;;;;11.65;5.80;;;13.40;59.30;;;;;;5095195;28;20028;-80
2024/01/12 12:23:49;;;;;;;8.70;4.80;;;13.40;59.50;;;;;;5095916;28;20399;-80
2024/01/12 12:26:16;;;;;;;8.55;5.18;;;13.50;59.70;;;;;;5096504;28;20575;-81
2024/01/12 12:28:44;;;;;;;7.45;4.93;;;13.60;59.40;;;;;;5095317;28;20033;-80
2024/01/12 12:31:10;;;;;;;10.95;5.38;;;13.70;59.20;;;;;;5095529;28;20040;-80
2024/01/12 12:33:36;;;;;;;8.77;4.80;;;13.70;58.90;;;;;;5096051;28;20028;-80
2024/01/12 12:36:07;;;;;;;10.07;5.53;;;13.80;58.90;;;;;;5095138;28;20036;-79
2024/01/12 12:38:36;;;;;;;8.32;4.50;;;13.80;58.50;;;;;;5094692;28;20027;-80
2024/01/12 12:41:01;;;;;;;9.13;4.68;;;13.90;58.20;;;;;;5076237;28;20034;-81